sensor_id;sensor_type;location;lat;lon;timestamp;temperature;humidity
12049;DHT22;6085;49.452;8.502;2023-02-15T00:00:38;1.10;99.90
12049;DHT22;6085;49.452;8.502;2023-02-15T00:04:40;1.10;99.90
12049;DHT22;6085;49.452;8.502;2023-02-15T00:08:48;1.10;99.90
12049;DHT22;6085;49.452;8.502;2023-02-15T00:12:51;1.00;99.90
12049;DHT22;6085;49.452;8.502;2023-02-15T00:16:53;1.00;99.90
12049;DHT22;6085;49.452;8.502;2023-02-15T00:20:55;1.00;99.90
12049;DHT22;6085;49.452;8.502;2023-02-15T00:24:57;1.00;99.90
12049;DHT22;6085;49.452;8.502;2023-02-15T00:29:00;1.00;99.90
12049;DHT22;6085;49.452;8.502;2023-02-15T00:33:02;1.00;99.90
12049;DHT22;6085;49.452;8.502;2023-02-15T00:37:04;1.00;99.90
12049;DHT22;6085;49.452;8.502;2023-02-15T00:41:07;1.00;99.90
12049;DHT22;6085;49.452;8.502;2023-02-15T00:45:10;1.00;99.90
12049;DHT22;6085;49.452;8.502;2023-02-15T00:49:12;1.00;99.90
12049;DHT22;6085;49.452;8.502;2023-02-15T00:53:15;1.00;99.90
12049;DHT22;6085;49.452;8.502;2023-02-15T00:57:17;1.00;99.90
12049;DHT22;6085;49.452;8.502;2023-02-15T01:01:20;1.00;99.90
12049;DHT22;6085;49.452;8.502;2023-02-15T01:05:22;1.00;99.90
12049;DHT22;6085;49.452;8.502;2023-02-15T01:09:24;1.00;99.90
12049;DHT22;6085;49.452;8.502;2023-02-15T01:13:26;1.00;99.90
12049;DHT22;6085;49.452;8.502;2023-02-15T01:17:31;1.00;99.90
12049;DHT22;6085;49.452;8.502;2023-02-15T01:21:33;1.00;99.90
12049;DHT22;6085;49.452;8.502;2023-02-15T01:25:35;1.00;99.90
12049;DHT22;6085;49.452;8.502;2023-02-15T01:29:37;1.00;99.90
12049;DHT22;6085;49.452;8.502;2023-02-15T01:33:41;1.00;99.90
12049;DHT22;6085;49.452;8.502;2023-02-15T01:37:43;1.00;99.90
12049;DHT22;6085;49.452;8.502;2023-02-15T01:41:45;1.10;99.90
12049;DHT22;6085;49.452;8.502;2023-02-15T01:45:47;1.10;99.90
12049;DHT22;6085;49.452;8.502;2023-02-15T01:49:58;1.10;99.90
12049;DHT22;6085;49.452;8.502;2023-02-15T01:54:04;1.10;99.90
12049;DHT22;6085;49.452;8.502;2023-02-15T01:58:07;1.10;99.90
12049;DHT22;6085;49.452;8.502;2023-02-15T02:02:10;1.10;99.90
12049;DHT22;6085;49.452;8.502;2023-02-15T02:06:16;1.10;99.90
12049;DHT22;6085;49.452;8.502;2023-02-15T02:10:20;1.10;99.90
12049;DHT22;6085;49.452;8.502;2023-02-15T02:14:24;1.10;99.90
12049;DHT22;6085;49.452;8.502;2023-02-15T02:18:37;1.10;99.90
12049;DHT22;6085;49.452;8.502;2023-02-15T02:27:35;1.10;99.90
12049;DHT22;6085;49.452;8.502;2023-02-15T02:31:49;1.10;99.90
12049;DHT22;6085;49.452;8.502;2023-02-15T02:36:02;1.10;99.90
12049;DHT22;6085;49.452;8.502;2023-02-15T02:40:12;1.10;99.90
12049;DHT22;6085;49.452;8.502;2023-02-15T02:44:21;1.00;99.90
12049;DHT22;6085;49.452;8.502;2023-02-15T02:48:26;1.00;99.90
12049;DHT22;6085;49.452;8.502;2023-02-15T02:52:39;0.90;99.90
12049;DHT22;6085;49.452;8.502;2023-02-15T02:56:44;0.90;99.90
12049;DHT22;6085;49.452;8.502;2023-02-15T03:00:51;0.90;99.90
12049;DHT22;6085;49.452;8.502;2023-02-15T03:04:56;1.00;99.90
12049;DHT22;6085;49.452;8.502;2023-02-15T03:09:10;1.00;99.90
12049;DHT22;6085;49.452;8.502;2023-02-15T03:13:15;1.00;99.90
12049;DHT22;6085;49.452;8.502;2023-02-15T03:17:19;1.00;99.90
12049;DHT22;6085;49.452;8.502;2023-02-15T03:21:26;1.00;99.90
12049;DHT22;6085;49.452;8.502;2023-02-15T03:25:33;1.00;99.90
12049;DHT22;6085;49.452;8.502;2023-02-15T03:29:37;1.00;99.90
12049;DHT22;6085;49.452;8.502;2023-02-15T03:33:44;1.00;99.90
12049;DHT22;6085;49.452;8.502;2023-02-15T03:37:48;1.00;99.90
12049;DHT22;6085;49.452;8.502;2023-02-15T03:41:59;1.00;99.90
12049;DHT22;6085;49.452;8.502;2023-02-15T03:46:06;1.00;99.90
12049;DHT22;6085;49.452;8.502;2023-02-15T03:50:13;1.00;99.90
12049;DHT22;6085;49.452;8.502;2023-02-15T03:54:32;1.00;99.90
12049;DHT22;6085;49.452;8.502;2023-02-15T03:58:45;1.00;99.90
12049;DHT22;6085;49.452;8.502;2023-02-15T04:03:22;1.00;99.90
12049;DHT22;6085;49.452;8.502;2023-02-15T04:07:27;1.00;99.90
12049;DHT22;6085;49.452;8.502;2023-02-15T04:11:30;1.10;99.90
12049;DHT22;6085;49.452;8.502;2023-02-15T04:15:33;1.10;99.90
12049;DHT22;6085;49.452;8.502;2023-02-15T04:19:52;1.10;99.90
12049;DHT22;6085;49.452;8.502;2023-02-15T04:24:13;1.10;99.90
12049;DHT22;6085;49.452;8.502;2023-02-15T04:28:32;1.10;99.90
12049;DHT22;6085;49.452;8.502;2023-02-15T04:32:36;1.10;99.90
12049;DHT22;6085;49.452;8.502;2023-02-15T04:36:38;1.10;99.90
12049;DHT22;6085;49.452;8.502;2023-02-15T04:40:40;1.10;99.90
12049;DHT22;6085;49.452;8.502;2023-02-15T04:44:42;1.20;99.90
12049;DHT22;6085;49.452;8.502;2023-02-15T04:48:45;1.20;99.90
12049;DHT22;6085;49.452;8.502;2023-02-15T04:52:47;1.20;99.90
12049;DHT22;6085;49.452;8.502;2023-02-15T04:56:49;1.20;99.90
12049;DHT22;6085;49.452;8.502;2023-02-15T05:00:50;1.20;99.90
12049;DHT22;6085;49.452;8.502;2023-02-15T05:04:54;1.20;99.90
12049;DHT22;6085;49.452;8.502;2023-02-15T05:08:56;1.20;99.90
12049;DHT22;6085;49.452;8.502;2023-02-15T05:12:59;1.20;99.90
12049;DHT22;6085;49.452;8.502;2023-02-15T05:17:01;1.20;99.90
12049;DHT22;6085;49.452;8.502;2023-02-15T05:21:05;1.20;99.90
12049;DHT22;6085;49.452;8.502;2023-02-15T05:25:08;1.20;99.90
12049;DHT22;6085;49.452;8.502;2023-02-15T05:29:27;1.20;99.90
12049;DHT22;6085;49.452;8.502;2023-02-15T05:33:28;1.10;99.90
12049;DHT22;6085;49.452;8.502;2023-02-15T05:37:32;1.10;99.90
12049;DHT22;6085;49.452;8.502;2023-02-15T05:41:33;1.10;99.90
12049;DHT22;6085;49.452;8.502;2023-02-15T05:45:35;1.10;99.90
12049;DHT22;6085;49.452;8.502;2023-02-15T05:49:37;1.10;99.90
12049;DHT22;6085;49.452;8.502;2023-02-15T05:53:40;1.10;99.90
12049;DHT22;6085;49.452;8.502;2023-02-15T05:57:42;1.10;99.90
12049;DHT22;6085;49.452;8.502;2023-02-15T06:01:44;1.10;99.90
12049;DHT22;6085;49.452;8.502;2023-02-15T06:05:46;1.10;99.90
12049;DHT22;6085;49.452;8.502;2023-02-15T06:09:49;1.20;99.90
12049;DHT22;6085;49.452;8.502;2023-02-15T06:13:51;1.20;99.90
12049;DHT22;6085;49.452;8.502;2023-02-15T06:17:52;1.20;99.90
12049;DHT22;6085;49.452;8.502;2023-02-15T06:21:54;1.30;99.90
12049;DHT22;6085;49.452;8.502;2023-02-15T06:25:57;1.30;99.90
12049;DHT22;6085;49.452;8.502;2023-02-15T06:29:59;1.30;99.90
12049;DHT22;6085;49.452;8.502;2023-02-15T06:34:01;1.30;99.90
12049;DHT22;6085;49.452;8.502;2023-02-15T06:38:03;1.30;99.90
12049;DHT22;6085;49.452;8.502;2023-02-15T06:42:07;1.30;99.90
12049;DHT22;6085;49.452;8.502;2023-02-15T06:46:08;1.30;99.90
12049;DHT22;6085;49.452;8.502;2023-02-15T06:50:11;1.30;99.90
12049;DHT22;6085;49.452;8.502;2023-02-15T06:54:13;1.40;99.90
12049;DHT22;6085;49.452;8.502;2023-02-15T06:58:16;1.40;99.90
12049;DHT22;6085;49.452;8.502;2023-02-15T07:02:18;1.40;99.90
12049;DHT22;6085;49.452;8.502;2023-02-15T07:06:20;1.40;99.90
12049;DHT22;6085;49.452;8.502;2023-02-15T07:10:21;1.40;99.90
12049;DHT22;6085;49.452;8.502;2023-02-15T07:14:25;1.40;99.90
12049;DHT22;6085;49.452;8.502;2023-02-15T07:18:27;1.40;99.90
12049;DHT22;6085;49.452;8.502;2023-02-15T07:22:28;1.40;99.90
12049;DHT22;6085;49.452;8.502;2023-02-15T07:26:31;1.40;99.90
12049;DHT22;6085;49.452;8.502;2023-02-15T07:30:35;1.40;99.90
12049;DHT22;6085;49.452;8.502;2023-02-15T07:34:37;1.40;99.90
12049;DHT22;6085;49.452;8.502;2023-02-15T07:38:40;1.30;99.90
12049;DHT22;6085;49.452;8.502;2023-02-15T07:42:42;1.40;99.90
12049;DHT22;6085;49.452;8.502;2023-02-15T07:46:46;1.40;99.90
12049;DHT22;6085;49.452;8.502;2023-02-15T07:50:47;1.40;99.90
12049;DHT22;6085;49.452;8.502;2023-02-15T07:54:49;1.40;99.90
12049;DHT22;6085;49.452;8.502;2023-02-15T07:58:51;1.50;99.90
12049;DHT22;6085;49.452;8.502;2023-02-15T08:02:55;1.50;99.90
12049;DHT22;6085;49.452;8.502;2023-02-15T08:07:17;1.50;99.90
12049;DHT22;6085;49.452;8.502;2023-02-15T08:11:21;1.50;99.90
12049;DHT22;6085;49.452;8.502;2023-02-15T08:15:26;1.40;99.90
12049;DHT22;6085;49.452;8.502;2023-02-15T08:19:31;1.50;99.90
12049;DHT22;6085;49.452;8.502;2023-02-15T08:23:33;1.50;99.90
12049;DHT22;6085;49.452;8.502;2023-02-15T08:27:35;1.50;99.90
12049;DHT22;6085;49.452;8.502;2023-02-15T08:31:37;1.50;99.90
12049;DHT22;6085;49.452;8.502;2023-02-15T08:35:42;1.50;99.90
12049;DHT22;6085;49.452;8.502;2023-02-15T08:39:44;1.50;99.90
12049;DHT22;6085;49.452;8.502;2023-02-15T08:43:47;1.50;99.90
12049;DHT22;6085;49.452;8.502;2023-02-15T08:47:51;1.50;99.90
12049;DHT22;6085;49.452;8.502;2023-02-15T08:51:54;1.50;99.90
12049;DHT22;6085;49.452;8.502;2023-02-15T08:55:56;1.50;99.90
12049;DHT22;6085;49.452;8.502;2023-02-15T08:59:58;1.50;99.90
12049;DHT22;6085;49.452;8.502;2023-02-15T09:04:02;1.50;99.90
12049;DHT22;6085;49.452;8.502;2023-02-15T09:08:07;1.50;99.90
12049;DHT22;6085;49.452;8.502;2023-02-15T09:12:08;1.50;99.90
12049;DHT22;6085;49.452;8.502;2023-02-15T09:16:11;1.50;99.90
12049;DHT22;6085;49.452;8.502;2023-02-15T09:20:12;1.40;99.90
12049;DHT22;6085;49.452;8.502;2023-02-15T09:24:16;1.50;99.90
12049;DHT22;6085;49.452;8.502;2023-02-15T09:28:18;1.50;99.90
12049;DHT22;6085;49.452;8.502;2023-02-15T09:32:20;1.60;99.90
12049;DHT22;6085;49.452;8.502;2023-02-15T09:36:24;1.60;99.90
12049;DHT22;6085;49.452;8.502;2023-02-15T09:40:28;1.70;99.90
12049;DHT22;6085;49.452;8.502;2023-02-15T09:44:51;1.70;99.90
12049;DHT22;6085;49.452;8.502;2023-02-15T09:49:02;1.70;99.90
12049;DHT22;6085;49.452;8.502;2023-02-15T09:53:23;1.70;99.90
12049;DHT22;6085;49.452;8.502;2023-02-15T09:57:34;1.60;99.90
12049;DHT22;6085;49.452;8.502;2023-02-15T10:01:43;1.70;99.90
12049;DHT22;6085;49.452;8.502;2023-02-15T10:05:58;1.80;99.90
12049;DHT22;6085;49.452;8.502;2023-02-15T10:10:13;1.70;99.90
12049;DHT22;6085;49.452;8.502;2023-02-15T10:14:37;1.70;99.90
12049;DHT22;6085;49.452;8.502;2023-02-15T10:18:50;1.80;99.90
12049;DHT22;6085;49.452;8.502;2023-02-15T10:23:07;1.70;99.90
12049;DHT22;6085;49.452;8.502;2023-02-15T10:27:12;1.90;99.90
12049;DHT22;6085;49.452;8.502;2023-02-15T10:31:22;1.90;99.90
12049;DHT22;6085;49.452;8.502;2023-02-15T10:35:34;1.80;99.90
12049;DHT22;6085;49.452;8.502;2023-02-15T10:39:48;1.80;99.90
12049;DHT22;6085;49.452;8.502;2023-02-15T10:44:09;1.90;99.90
12049;DHT22;6085;49.452;8.502;2023-02-15T10:48:34;2.10;99.90
12049;DHT22;6085;49.452;8.502;2023-02-15T10:52:50;2.10;99.90
12049;DHT22;6085;49.452;8.502;2023-02-15T10:57:02;2.00;99.90
12049;DHT22;6085;49.452;8.502;2023-02-15T11:01:13;2.00;99.90
12049;DHT22;6085;49.452;8.502;2023-02-15T11:05:32;2.20;99.90
12049;DHT22;6085;49.452;8.502;2023-02-15T11:09:40;2.40;99.90
12049;DHT22;6085;49.452;8.502;2023-02-15T11:13:47;2.40;99.90
12049;DHT22;6085;49.452;8.502;2023-02-15T11:17:55;2.40;99.90
12049;DHT22;6085;49.452;8.502;2023-02-15T11:22:04;2.50;99.90
12049;DHT22;6085;49.452;8.502;2023-02-15T11:26:13;2.50;99.90
12049;DHT22;6085;49.452;8.502;2023-02-15T11:30:19;2.60;99.90
12049;DHT22;6085;49.452;8.502;2023-02-15T11:34:27;2.60;99.90
12049;DHT22;6085;49.452;8.502;2023-02-15T11:38:33;2.70;99.90
12049;DHT22;6085;49.452;8.502;2023-02-15T11:42:36;2.70;99.90
12049;DHT22;6085;49.452;8.502;2023-02-15T11:46:38;2.70;99.90
12049;DHT22;6085;49.452;8.502;2023-02-15T11:50:41;2.90;99.90
12049;DHT22;6085;49.452;8.502;2023-02-15T11:54:46;3.00;99.90
12049;DHT22;6085;49.452;8.502;2023-02-15T11:58:54;3.10;99.90
12049;DHT22;6085;49.452;8.502;2023-02-15T12:02:57;3.00;99.90
12049;DHT22;6085;49.452;8.502;2023-02-15T12:07:02;3.10;99.90
12049;DHT22;6085;49.452;8.502;2023-02-15T12:11:09;3.30;99.90
12049;DHT22;6085;49.452;8.502;2023-02-15T12:15:13;3.30;99.90
12049;DHT22;6085;49.452;8.502;2023-02-15T12:19:29;3.30;99.90
12049;DHT22;6085;49.452;8.502;2023-02-15T12:23:32;3.30;99.90
12049;DHT22;6085;49.452;8.502;2023-02-15T12:27:39;3.20;99.90
12049;DHT22;6085;49.452;8.502;2023-02-15T12:31:46;3.20;99.90
12049;DHT22;6085;49.452;8.502;2023-02-15T12:35:56;3.20;99.90
12049;DHT22;6085;49.452;8.502;2023-02-15T12:40:01;3.40;99.90
12049;DHT22;6085;49.452;8.502;2023-02-15T12:44:06;3.40;99.90
12049;DHT22;6085;49.452;8.502;2023-02-15T12:48:14;3.40;99.90
12049;DHT22;6085;49.452;8.502;2023-02-15T12:52:24;3.50;99.90
12049;DHT22;6085;49.452;8.502;2023-02-15T12:56:26;3.60;99.90
12049;DHT22;6085;49.452;8.502;2023-02-15T13:00:30;3.60;99.90
12049;DHT22;6085;49.452;8.502;2023-02-15T13:04:32;3.50;99.90
12049;DHT22;6085;49.452;8.502;2023-02-15T13:08:37;3.60;99.90
12049;DHT22;6085;49.452;8.502;2023-02-15T13:12:46;3.50;99.90
12049;DHT22;6085;49.452;8.502;2023-02-15T13:16:52;3.40;99.90
12049;DHT22;6085;49.452;8.502;2023-02-15T13:20:55;3.50;99.90
12049;DHT22;6085;49.452;8.502;2023-02-15T13:24:59;3.60;99.90
12049;DHT22;6085;49.452;8.502;2023-02-15T13:29:07;3.60;99.90
12049;DHT22;6085;49.452;8.502;2023-02-15T13:33:16;3.50;99.90
12049;DHT22;6085;49.452;8.502;2023-02-15T13:37:21;3.50;99.90
12049;DHT22;6085;49.452;8.502;2023-02-15T13:41:32;3.60;99.90
12049;DHT22;6085;49.452;8.502;2023-02-15T13:45:39;3.70;99.90
12049;DHT22;6085;49.452;8.502;2023-02-15T13:49:57;3.90;99.90
12049;DHT22;6085;49.452;8.502;2023-02-15T13:54:28;4.10;99.90
12049;DHT22;6085;49.452;8.502;2023-02-15T14:03:14;4.30;99.90
12049;DHT22;6085;49.452;8.502;2023-02-15T14:07:39;4.50;99.90
12049;DHT22;6085;49.452;8.502;2023-02-15T14:11:54;4.60;99.90
12049;DHT22;6085;49.452;8.502;2023-02-15T14:16:03;4.50;99.90
12049;DHT22;6085;49.452;8.502;2023-02-15T14:20:17;4.30;99.90
12049;DHT22;6085;49.452;8.502;2023-02-15T14:24:30;3.90;99.90
12049;DHT22;6085;49.452;8.502;2023-02-15T14:28:40;3.70;99.90
12049;DHT22;6085;49.452;8.502;2023-02-15T14:32:47;3.60;99.90
12049;DHT22;6085;49.452;8.502;2023-02-15T14:36:51;3.60;99.90
12049;DHT22;6085;49.452;8.502;2023-02-15T14:40:57;3.70;99.90
12049;DHT22;6085;49.452;8.502;2023-02-15T14:45:14;4.10;99.90
12049;DHT22;6085;49.452;8.502;2023-02-15T14:49:19;5.10;99.90
12049;DHT22;6085;49.452;8.502;2023-02-15T14:53:36;5.70;99.90
12049;DHT22;6085;49.452;8.502;2023-02-15T14:57:55;6.20;99.90
12049;DHT22;6085;49.452;8.502;2023-02-15T15:02:04;6.60;99.90
12049;DHT22;6085;49.452;8.502;2023-02-15T15:06:24;6.60;99.90
12049;DHT22;6085;49.452;8.502;2023-02-15T15:10:41;6.50;99.90
12049;DHT22;6085;49.452;8.502;2023-02-15T15:14:45;6.60;99.90
12049;DHT22;6085;49.452;8.502;2023-02-15T15:18:48;6.40;99.90
12049;DHT22;6085;49.452;8.502;2023-02-15T15:22:50;6.00;99.90
12049;DHT22;6085;49.452;8.502;2023-02-15T15:27:46;5.60;99.90
12049;DHT22;6085;49.452;8.502;2023-02-15T15:31:53;4.80;99.90
12049;DHT22;6085;49.452;8.502;2023-02-15T15:36:14;4.10;99.90
12049;DHT22;6085;49.452;8.502;2023-02-15T15:40:48;3.90;99.90
12049;DHT22;6085;49.452;8.502;2023-02-15T15:49:42;3.70;99.90
12049;DHT22;6085;49.452;8.502;2023-02-15T15:53:45;3.40;99.90
12049;DHT22;6085;49.452;8.502;2023-02-15T15:57:51;3.20;99.90
12049;DHT22;6085;49.452;8.502;2023-02-15T16:01:54;2.90;99.90
12049;DHT22;6085;49.452;8.502;2023-02-15T16:05:57;2.60;99.90
12049;DHT22;6085;49.452;8.502;2023-02-15T16:10:03;2.40;99.90
12049;DHT22;6085;49.452;8.502;2023-02-15T16:14:13;2.10;99.90
12049;DHT22;6085;49.452;8.502;2023-02-15T16:18:17;2.00;99.90
12049;DHT22;6085;49.452;8.502;2023-02-15T16:22:23;1.80;99.90
12049;DHT22;6085;49.452;8.502;2023-02-15T16:26:47;1.60;99.90
12049;DHT22;6085;49.452;8.502;2023-02-15T16:31:04;1.50;99.90
12049;DHT22;6085;49.452;8.502;2023-02-15T16:35:14;1.30;99.90
12049;DHT22;6085;49.452;8.502;2023-02-15T16:39:21;1.10;99.90
12049;DHT22;6085;49.452;8.502;2023-02-15T16:43:25;1.00;99.90
12049;DHT22;6085;49.452;8.502;2023-02-15T16:47:29;0.90;99.90
12049;DHT22;6085;49.452;8.502;2023-02-15T16:51:34;0.60;99.90
12049;DHT22;6085;49.452;8.502;2023-02-15T16:55:40;0.40;99.90
12049;DHT22;6085;49.452;8.502;2023-02-15T16:59:46;0.10;99.90
12049;DHT22;6085;49.452;8.502;2023-02-15T17:03:50;0.00;99.90
12049;DHT22;6085;49.452;8.502;2023-02-15T17:08:06;-0.20;99.90
12049;DHT22;6085;49.452;8.502;2023-02-15T17:12:10;-0.30;99.90
12049;DHT22;6085;49.452;8.502;2023-02-15T17:16:28;-0.40;99.90
12049;DHT22;6085;49.452;8.502;2023-02-15T17:20:31;-0.40;99.90
12049;DHT22;6085;49.452;8.502;2023-02-15T17:24:35;-0.50;99.90
12049;DHT22;6085;49.452;8.502;2023-02-15T17:28:46;-0.60;99.90
12049;DHT22;6085;49.452;8.502;2023-02-15T17:32:54;-0.60;99.90
12049;DHT22;6085;49.452;8.502;2023-02-15T17:36:59;-0.60;99.90
12049;DHT22;6085;49.452;8.502;2023-02-15T17:41:02;-0.70;99.90
12049;DHT22;6085;49.452;8.502;2023-02-15T17:45:06;-0.80;99.90
12049;DHT22;6085;49.452;8.502;2023-02-15T17:49:18;-0.90;99.90
12049;DHT22;6085;49.452;8.502;2023-02-15T17:53:22;-0.90;99.90
12049;DHT22;6085;49.452;8.502;2023-02-15T17:57:25;-0.90;99.90
12049;DHT22;6085;49.452;8.502;2023-02-15T18:01:29;-1.00;99.90
12049;DHT22;6085;49.452;8.502;2023-02-15T18:05:49;-1.00;99.90
12049;DHT22;6085;49.452;8.502;2023-02-15T18:10:12;-1.10;99.90
12049;DHT22;6085;49.452;8.502;2023-02-15T18:14:32;-1.10;99.90
12049;DHT22;6085;49.452;8.502;2023-02-15T18:18:35;-1.20;99.90
12049;DHT22;6085;49.452;8.502;2023-02-15T18:22:37;-1.20;99.90
12049;DHT22;6085;49.452;8.502;2023-02-15T18:26:39;-1.20;99.90
12049;DHT22;6085;49.452;8.502;2023-02-15T18:30:41;-1.20;99.90
12049;DHT22;6085;49.452;8.502;2023-02-15T18:34:47;-1.30;99.90
12049;DHT22;6085;49.452;8.502;2023-02-15T18:38:49;-1.40;99.90
12049;DHT22;6085;49.452;8.502;2023-02-15T18:42:54;-1.50;99.90
12049;DHT22;6085;49.452;8.502;2023-02-15T18:46:56;-1.50;99.90
12049;DHT22;6085;49.452;8.502;2023-02-15T18:51:00;-1.50;99.90
12049;DHT22;6085;49.452;8.502;2023-02-15T18:55:15;-1.60;99.90
12049;DHT22;6085;49.452;8.502;2023-02-15T18:59:17;-1.50;99.90
12049;DHT22;6085;49.452;8.502;2023-02-15T19:03:19;-1.50;99.90
12049;DHT22;6085;49.452;8.502;2023-02-15T19:07:24;-1.40;99.90
12049;DHT22;6085;49.452;8.502;2023-02-15T19:11:27;-1.50;99.90
12049;DHT22;6085;49.452;8.502;2023-02-15T19:15:29;-1.50;99.90
12049;DHT22;6085;49.452;8.502;2023-02-15T19:19:31;-1.60;99.90
12049;DHT22;6085;49.452;8.502;2023-02-15T19:23:35;-1.60;99.90
12049;DHT22;6085;49.452;8.502;2023-02-15T19:27:37;-1.70;99.90
12049;DHT22;6085;49.452;8.502;2023-02-15T19:31:38;-1.80;99.90
12049;DHT22;6085;49.452;8.502;2023-02-15T19:35:40;-1.80;99.90
12049;DHT22;6085;49.452;8.502;2023-02-15T19:39:44;-1.90;99.90
12049;DHT22;6085;49.452;8.502;2023-02-15T19:43:50;-1.90;99.90
12049;DHT22;6085;49.452;8.502;2023-02-15T19:47:55;-1.90;99.90
12049;DHT22;6085;49.452;8.502;2023-02-15T19:51:57;-1.90;99.90
12049;DHT22;6085;49.452;8.502;2023-02-15T19:56:01;-2.00;99.90
12049;DHT22;6085;49.452;8.502;2023-02-15T20:00:13;-2.00;99.90
12049;DHT22;6085;49.452;8.502;2023-02-15T20:04:17;-2.10;99.90
12049;DHT22;6085;49.452;8.502;2023-02-15T20:08:21;-2.20;99.90
12049;DHT22;6085;49.452;8.502;2023-02-15T20:12:26;-2.20;99.90
12049;DHT22;6085;49.452;8.502;2023-02-15T20:16:28;-2.10;99.90
12049;DHT22;6085;49.452;8.502;2023-02-15T20:20:33;-2.10;99.90
12049;DHT22;6085;49.452;8.502;2023-02-15T20:24:37;-2.10;99.90
12049;DHT22;6085;49.452;8.502;2023-02-15T20:28:41;-2.20;99.90
12049;DHT22;6085;49.452;8.502;2023-02-15T20:32:42;-2.20;99.90
12049;DHT22;6085;49.452;8.502;2023-02-15T20:36:44;-2.30;99.90
12049;DHT22;6085;49.452;8.502;2023-02-15T20:40:46;-2.30;99.90
12049;DHT22;6085;49.452;8.502;2023-02-15T20:45:19;-2.30;99.90
12049;DHT22;6085;49.452;8.502;2023-02-15T20:49:21;-2.20;99.90
12049;DHT22;6085;49.452;8.502;2023-02-15T20:53:25;-1.90;99.90
12049;DHT22;6085;49.452;8.502;2023-02-15T20:57:27;-1.90;99.90
12049;DHT22;6085;49.452;8.502;2023-02-15T21:01:30;-2.10;99.90
12049;DHT22;6085;49.452;8.502;2023-02-15T21:05:32;-2.20;99.90
12049;DHT22;6085;49.452;8.502;2023-02-15T21:09:34;-2.30;99.90
12049;DHT22;6085;49.452;8.502;2023-02-15T21:13:36;-2.30;99.90
12049;DHT22;6085;49.452;8.502;2023-02-15T21:17:39;-2.30;99.90
12049;DHT22;6085;49.452;8.502;2023-02-15T21:21:41;-2.40;99.90
12049;DHT22;6085;49.452;8.502;2023-02-15T21:25:43;-2.40;99.90
12049;DHT22;6085;49.452;8.502;2023-02-15T21:29:46;-2.40;99.90
12049;DHT22;6085;49.452;8.502;2023-02-15T21:33:49;-2.50;99.90
12049;DHT22;6085;49.452;8.502;2023-02-15T21:37:51;-2.50;99.90
12049;DHT22;6085;49.452;8.502;2023-02-15T21:41:54;-2.50;99.90
12049;DHT22;6085;49.452;8.502;2023-02-15T21:46:15;-2.50;99.90
12049;DHT22;6085;49.452;8.502;2023-02-15T21:50:37;-2.50;99.90
12049;DHT22;6085;49.452;8.502;2023-02-15T21:54:56;-2.60;99.90
12049;DHT22;6085;49.452;8.502;2023-02-15T21:58:58;-2.60;99.90
12049;DHT22;6085;49.452;8.502;2023-02-15T22:03:00;-2.60;99.90
12049;DHT22;6085;49.452;8.502;2023-02-15T22:07:03;-2.60;99.90
12049;DHT22;6085;49.452;8.502;2023-02-15T22:11:10;-2.60;99.90
12049;DHT22;6085;49.452;8.502;2023-02-15T22:15:17;-2.50;99.90
12049;DHT22;6085;49.452;8.502;2023-02-15T22:19:19;-2.50;99.90
12049;DHT22;6085;49.452;8.502;2023-02-15T22:23:22;-2.50;99.90
12049;DHT22;6085;49.452;8.502;2023-02-15T22:27:26;-2.50;99.90
12049;DHT22;6085;49.452;8.502;2023-02-15T22:31:29;-2.50;99.90
12049;DHT22;6085;49.452;8.502;2023-02-15T22:35:33;-2.50;99.90
12049;DHT22;6085;49.452;8.502;2023-02-15T22:39:37;-2.50;99.90
12049;DHT22;6085;49.452;8.502;2023-02-15T22:43:40;-2.50;99.90
12049;DHT22;6085;49.452;8.502;2023-02-15T22:47:43;-2.60;99.90
12049;DHT22;6085;49.452;8.502;2023-02-15T22:51:47;-2.70;99.90
12049;DHT22;6085;49.452;8.502;2023-02-15T22:55:51;-2.80;99.90
12049;DHT22;6085;49.452;8.502;2023-02-15T22:59:54;-2.80;99.90
12049;DHT22;6085;49.452;8.502;2023-02-15T23:03:56;-2.60;99.90
12049;DHT22;6085;49.452;8.502;2023-02-15T23:07:58;-2.50;99.90
12049;DHT22;6085;49.452;8.502;2023-02-15T23:12:01;-2.40;99.90
12049;DHT22;6085;49.452;8.502;2023-02-15T23:16:05;-2.20;99.90
12049;DHT22;6085;49.452;8.502;2023-02-15T23:20:12;-2.10;99.90
12049;DHT22;6085;49.452;8.502;2023-02-15T23:24:17;-2.00;99.90
12049;DHT22;6085;49.452;8.502;2023-02-15T23:28:25;-1.80;99.90
12049;DHT22;6085;49.452;8.502;2023-02-15T23:32:27;-1.70;99.90
12049;DHT22;6085;49.452;8.502;2023-02-15T23:36:31;-1.50;99.90
12049;DHT22;6085;49.452;8.502;2023-02-15T23:40:33;-1.50;99.90
12049;DHT22;6085;49.452;8.502;2023-02-15T23:44:54;-1.30;99.90
12049;DHT22;6085;49.452;8.502;2023-02-15T23:48:56;-1.30;99.90
12049;DHT22;6085;49.452;8.502;2023-02-15T23:52:58;-1.20;99.90
12049;DHT22;6085;49.452;8.502;2023-02-15T23:57:01;-1.20;99.90
